Time;durP1;ratioP1;P1;durP2;ratioP2;P2;SDS_P1;SDS_P2;PMS_P1;PMS_P2;Temp;Humidity;BMP_temperature;BMP_pressure;BME280_temperature;BME280_humidity;BME280_pressure;Samples;Min_cycle;Max_cycle;Signal;HPM_P1;HPM_P2
2022/08/16 00:02:19;;;;;;;;;;;;;;;23.63;65.42;100069.13;7400201;19;1503;-54
2022/08/16 00:04:47;;;;;;;;;;;;;;;23.63;65.76;100077.22;7402169;19;1660;-55
2022/08/16 00:07:15;;;;;;;;;;;;;;;23.63;65.44;100077.22;7402062;19;1850;-55
2022/08/16 00:09:44;;;;;;;;;;;;;;;23.68;65.49;100085.59;7401275;19;1478;-54
2022/08/16 00:12:12;;;;;;;;;;;;;;;23.59;65.61;100078.59;7403840;19;1572;-54
2022/08/16 00:14:43;;;;;;;;;;;;;;;23.63;65.16;100088.88;7402228;19;1418;-54
2022/08/16 00:17:11;;;;;;;;;;;;;;;23.55;65.64;100077.28;7404061;19;1840;-54
2022/08/16 00:19:39;;;;;;;;;;;;;;;23.59;65.13;100094.78;7401371;19;1674;-55
2022/08/16 00:22:08;;;;;;;;;;;;;;;23.62;65.04;100089.03;7402850;19;1494;-55
2022/08/16 00:24:36;;;;;;;;;;;;;;;23.51;65.50;100089.47;7399784;19;1525;-55
2022/08/16 00:27:05;;;;;;;;;;;;;;;23.55;65.58;100096.19;7402499;19;1842;-54
2022/08/16 00:29:34;;;;;;;;;;;;;;;23.53;65.97;100095.53;7401020;19;1854;-54
2022/08/16 00:32:06;;;;;;;;;;;;;;;23.59;65.08;100103.72;7401480;19;1341;-55
2022/08/16 00:34:35;;;;;;;;;;;;;;;23.56;65.53;100097.88;7401417;19;1846;-54
2022/08/16 00:37:04;;;;;;;;;;;;;;;23.59;65.56;100106.41;7402211;19;1480;-54
2022/08/16 00:39:32;;;;;;;;;;;;;;;23.57;65.58;100100.38;7400000;19;1548;-54
2022/08/16 00:42:01;;;;;;;;;;;;;;;23.61;65.73;100092.75;7401204;19;1385;-55
2022/08/16 00:44:30;;;;;;;;;;;;;;;23.58;65.32;100102.06;7401131;19;1453;-54
2022/08/16 00:47:01;;;;;;;;;;;;;;;23.61;65.23;100081.94;7401934;19;1851;-54
2022/08/16 00:49:32;;;;;;;;;;;;;;;23.63;65.00;100096.09;7400714;19;1443;-54
2022/08/16 00:52:06;;;;;;;;;;;;;;;23.60;65.16;100089.22;7397413;19;1383;-54
2022/08/16 00:54:45;;;;;;;;;;;;;;;23.58;65.11;100087.72;7401857;19;1405;-54
2022/08/16 00:57:15;;;;;;;;;;;;;;;23.64;64.90;100100.50;7401474;19;1506;-54
2022/08/16 00:59:46;;;;;;;;;;;;;;;23.54;64.93;100100.75;7402180;19;1697;-55
2022/08/16 01:02:16;;;;;;;;;;;;;;;23.53;65.12;100103.63;7401393;19;1419;-54
2022/08/16 01:04:49;;;;;;;;;;;;;;;23.53;64.96;100096.34;7401511;19;1588;-56
2022/08/16 01:07:22;;;;;;;;;;;;;;;23.55;65.30;100091.63;7399650;19;1943;-54
2022/08/16 01:09:52;;;;;;;;;;;;;;;23.55;65.16;100102.41;7400579;19;1418;-55
2022/08/16 01:12:24;;;;;;;;;;;;;;;23.55;64.93;100097.00;7399791;19;1720;-55
2022/08/16 01:15:01;;;;;;;;;;;;;;;23.50;65.24;100095.91;7401252;19;1583;-55
2022/08/16 01:17:37;;;;;;;;;;;;;;;23.57;64.82;100105.75;7401721;19;1585;-55
2022/08/16 01:20:28;;;;;;;;;;;;;;;23.62;64.84;100103.38;7401108;19;1389;-55
2022/08/16 01:23:16;;;;;;;;;;;;;;;23.49;64.77;100086.94;7400171;19;1235;-54
2022/08/16 01:26:01;;;;;;;;;;;;;;;23.45;64.44;100079.41;7400684;19;1865;-55
2022/08/16 01:31:32;;;;;;;;;;;;;;;23.44;64.94;100083.97;7398839;19;1836;-55
2022/08/16 01:34:04;;;;;;;;;;;;;;;23.49;64.51;100078.84;7398174;19;1659;-54
2022/08/16 01:36:47;;;;;;;;;;;;;;;23.48;64.58;100089.84;7402098;19;2043;-55
2022/08/16 01:39:20;;;;;;;;;;;;;;;23.46;64.58;100083.75;7398530;19;1395;-55
2022/08/16 01:42:00;;;;;;;;;;;;;;;23.51;64.50;100087.59;7398923;19;1751;-56
2022/08/16 01:44:32;;;;;;;;;;;;;;;23.42;64.83;100108.44;7399932;19;1469;-55
2022/08/16 01:47:13;;;;;;;;;;;;;;;23.47;64.41;100102.47;7400367;19;1837;-54
2022/08/16 01:49:45;;;;;;;;;;;;;;;23.52;64.27;100113.59;7400214;19;1840;-55
2022/08/16 01:52:15;;;;;;;;;;;;;;;23.44;64.44;100102.84;7401064;19;1972;-55
2022/08/16 01:54:45;;;;;;;;;;;;;;;23.50;64.41;100114.78;7399399;19;1743;-55
2022/08/16 01:57:36;;;;;;;;;;;;;;;23.46;64.26;100108.06;7399223;19;1712;-56
2022/08/16 02:02:42;;;;;;;;;;;;;;;23.34;64.49;100110.38;7400058;19;1530;-58
2022/08/16 02:05:10;;;;;;;;;;;;;;;23.20;64.75;100112.81;7408472;19;1552;-58
2022/08/16 02:07:42;;;;;;;;;;;;;;;23.17;64.70;100107.75;7409246;19;1862;-57
2022/08/16 02:10:11;;;;;;;;;;;;;;;23.00;64.93;100096.22;7409967;19;1328;-58
2022/08/16 02:12:42;;;;;;;;;;;;;;;23.12;64.86;100112.00;7410250;19;1561;-58
2022/08/16 02:15:11;;;;;;;;;;;;;;;23.06;64.81;100096.53;7410603;19;1810;-58
2022/08/16 02:17:39;;;;;;;;;;;;;;;23.27;65.00;100104.81;7409374;19;1672;-58
2022/08/16 02:20:08;;;;;;;;;;;;;;;23.24;64.98;100091.72;7409892;19;1749;-58
2022/08/16 02:22:40;;;;;;;;;;;;;;;23.27;64.47;100104.00;7409049;19;1746;-58
2022/08/16 02:25:11;;;;;;;;;;;;;;;23.28;64.55;100084.06;7408717;19;1548;-58
2022/08/16 02:27:42;;;;;;;;;;;;;;;23.30;64.44;100096.38;7407057;19;1856;-58
2022/08/16 02:30:13;;;;;;;;;;;;;;;23.25;64.69;100108.72;7408698;19;1618;-58
2022/08/16 02:32:42;;;;;;;;;;;;;;;23.32;64.45;100093.50;7406078;19;1250;-57
2022/08/16 02:35:12;;;;;;;;;;;;;;;23.31;64.25;100103.44;7410066;19;1545;-58
2022/08/16 02:37:40;;;;;;;;;;;;;;;23.28;64.13;100108.34;7408610;19;1658;-58
2022/08/16 02:40:09;;;;;;;;;;;;;;;23.34;64.10;100113.06;7408563;19;1336;-58
2022/08/16 02:42:38;;;;;;;;;;;;;;;23.28;64.20;100114.63;7408643;19;1774;-58
2022/08/16 02:45:09;;;;;;;;;;;;;;;23.10;64.67;100117.59;7407751;19;1753;-57
2022/08/16 02:47:37;;;;;;;;;;;;;;;23.14;64.53;100099.19;7409009;19;1853;-58
2022/08/16 02:50:06;;;;;;;;;;;;;;;23.29;64.20;100118.97;7409370;19;1627;-55
2022/08/16 02:52:35;;;;;;;;;;;;;;;23.36;63.66;100119.94;7408838;19;1622;-55
2022/08/16 02:55:03;;;;;;;;;;;;;;;23.35;63.87;100112.84;7408202;19;1774;-55
2022/08/16 02:57:32;;;;;;;;;;;;;;;23.26;64.03;100116.66;7407792;19;1564;-55
2022/08/16 03:00:04;;;;;;;;;;;;;;;23.30;63.84;100125.19;7408052;19;1563;-55
2022/08/16 03:02:35;;;;;;;;;;;;;;;23.37;63.91;100135.09;7406588;19;1375;-56
2022/08/16 03:05:03;;;;;;;;;;;;;;;23.23;63.88;100122.38;7406954;19;1770;-55
2022/08/16 03:07:32;;;;;;;;;;;;;;;23.31;63.74;100135.81;7409000;19;1851;-55
2022/08/16 03:10:00;;;;;;;;;;;;;;;23.28;63.91;100122.69;7407661;19;1607;-55
2022/08/16 03:12:28;;;;;;;;;;;;;;;23.22;63.84;100134.22;7404211;19;1513;-56
2022/08/16 03:14:57;;;;;;;;;;;;;;;23.24;63.80;100121.38;7406963;19;1348;-55
2022/08/16 03:17:26;;;;;;;;;;;;;;;23.18;64.02;100136.41;7404329;19;1765;-55
2022/08/16 03:19:57;;;;;;;;;;;;;;;23.11;63.80;100124.66;7407924;19;1635;-55
2022/08/16 03:22:25;;;;;;;;;;;;;;;23.22;63.77;100128.81;7407914;19;1900;-55
2022/08/16 03:24:54;;;;;;;;;;;;;;;23.30;63.57;100131.47;7406768;19;1331;-55
2022/08/16 03:27:22;;;;;;;;;;;;;;;23.25;63.67;100133.00;7405820;19;1320;-55
2022/08/16 03:29:51;;;;;;;;;;;;;;;23.33;63.59;100138.34;7405251;19;1858;-56
2022/08/16 03:32:19;;;;;;;;;;;;;;;23.42;63.78;100134.59;7407601;19;1533;-55
2022/08/16 03:34:47;;;;;;;;;;;;;;;23.37;63.43;100135.09;7406836;19;1642;-57
2022/08/16 03:37:18;;;;;;;;;;;;;;;23.34;63.33;100129.25;7406658;19;1560;-55
2022/08/16 03:39:47;;;;;;;;;;;;;;;23.32;63.50;100129.41;7405239;19;1548;-55
2022/08/16 03:42:15;;;;;;;;;;;;;;;23.35;63.50;100139.00;7403764;19;1387;-55
2022/08/16 03:44:44;;;;;;;;;;;;;;;23.31;63.79;100132.28;7403027;19;1339;-56
2022/08/16 03:47:12;;;;;;;;;;;;;;;23.33;63.58;100125.69;7402791;19;1414;-55
2022/08/16 03:49:40;;;;;;;;;;;;;;;23.38;63.79;100146.75;7400853;19;1857;-55
2022/08/16 03:52:09;;;;;;;;;;;;;;;23.31;63.91;100149.31;7403582;19;1397;-56
2022/08/16 03:54:40;;;;;;;;;;;;;;;23.32;63.64;100142.91;7405333;19;1315;-56
2022/08/16 03:57:09;;;;;;;;;;;;;;;23.38;63.44;100149.44;7404742;19;1404;-56
2022/08/16 03:59:37;;;;;;;;;;;;;;;23.28;63.78;100146.97;7402861;19;1450;-56
2022/08/16 04:02:06;;;;;;;;;;;;;;;23.30;63.75;100146.78;7404399;19;1489;-56
2022/08/16 04:04:35;;;;;;;;;;;;;;;23.31;64.13;100148.47;7404180;19;1357;-56
2022/08/16 04:07:03;;;;;;;;;;;;;;;23.50;63.59;100145.31;7403769;19;1378;-55
2022/08/16 04:09:32;;;;;;;;;;;;;;;23.42;64.00;100119.22;7402897;19;1853;-56
2022/08/16 04:12:03;;;;;;;;;;;;;;;23.43;63.58;100126.28;7403938;19;1312;-55
2022/08/16 04:25:27;;;;;;;;;;;;;;;23.94;63.00;100154.59;6907348;19;10002404;-57
2022/08/16 04:27:55;;;;;;;;;;;;;;;24.20;62.18;100163.09;7423738;19;1653;-56
2022/08/16 04:30:24;;;;;;;;;;;;;;;24.48;61.34;100162.47;7427622;19;1306;-57
2022/08/16 04:32:52;;;;;;;;;;;;;;;24.65;60.89;100152.34;7427936;19;1853;-51
2022/08/16 04:35:22;;;;;;;;;;;;;;;24.59;61.03;100143.13;7431230;19;1335;-53
2022/08/16 04:37:51;;;;;;;;;;;;;;;24.36;62.32;100143.19;7430031;19;1458;-51
2022/08/16 04:40:20;;;;;;;;;;;;;;;24.24;62.74;100149.25;7431594;19;1442;-54
2022/08/16 04:42:51;;;;;;;;;;;;;;;24.12;62.96;100152.38;7435520;19;1411;-54
2022/08/16 04:45:20;;;;;;;;;;;;;;;24.14;62.62;100146.81;7434253;19;1634;-53
2022/08/16 04:47:49;;;;;;;;;;;;;;;24.12;63.16;100156.97;7431444;19;1655;-52
2022/08/16 04:50:19;;;;;;;;;;;;;;;24.11;63.00;100166.91;7435980;19;2005;-54
2022/08/16 04:52:48;;;;;;;;;;;;;;;24.09;62.92;100147.34;7435934;19;1853;-53
2022/08/16 04:55:17;;;;;;;;;;;;;;;24.06;63.09;100155.81;7435649;19;1835;-53
2022/08/16 04:57:46;;;;;;;;;;;;;;;24.20;63.22;100149.59;7435916;19;1682;-53
2022/08/16 05:00:21;;;;;;;;;;;;;;;24.18;63.08;100148.09;7435795;19;1732;-55
2022/08/16 05:02:50;;;;;;;;;;;;;;;24.36;62.85;100159.38;7435113;19;1521;-54
2022/08/16 05:05:19;;;;;;;;;;;;;;;24.26;62.96;100163.41;7433521;19;1523;-54
2022/08/16 05:07:47;;;;;;;;;;;;;;;24.20;63.49;100165.81;7430960;19;1866;-53
2022/08/16 05:10:16;;;;;;;;;;;;;;;24.17;63.80;100149.97;7434539;19;1573;-55
2022/08/16 05:12:44;;;;;;;;;;;;;;;24.28;63.53;100150.53;7431574;19;1501;-51
2022/08/16 05:15:13;;;;;;;;;;;;;;;24.29;63.15;100154.91;7429077;19;1856;-51
2022/08/16 05:17:44;;;;;;;;;;;;;;;24.32;63.00;100162.66;7433499;19;1738;-51
2022/08/16 05:20:13;;;;;;;;;;;;;;;24.41;63.38;100161.53;7432344;19;1386;-51
2022/08/16 05:22:41;;;;;;;;;;;;;;;24.39;63.51;100150.06;7434116;19;1969;-51
2022/08/16 05:25:11;;;;;;;;;;;;;;;24.54;62.74;100152.81;7415708;19;1610;-51
2022/08/16 05:27:39;;;;;;;;;;;;;;;24.68;62.56;100146.53;7407179;19;1660;-49
2022/08/16 05:30:11;;;;;;;;;;;;;;;24.68;62.65;100124.91;7406092;19;1473;-50
2022/08/16 05:32:39;;;;;;;;;;;;;;;24.64;62.80;100139.84;7405140;19;1739;-51
2022/08/16 05:35:11;;;;;;;;;;;;;;;24.68;62.99;100159.25;7402717;19;1953;-51
2022/08/16 05:37:41;;;;;;;;;;;;;;;24.69;62.81;100152.78;7406338;19;1541;-50
2022/08/16 05:40:11;;;;;;;;;;;;;;;24.69;62.78;100156.34;7405183;19;1520;-51
2022/08/16 05:42:39;;;;;;;;;;;;;;;24.80;62.79;100176.66;7405119;19;1671;-50
2022/08/16 05:45:08;;;;;;;;;;;;;;;24.80;62.75;100160.44;7404669;19;1580;-50
2022/08/16 05:47:36;;;;;;;;;;;;;;;24.95;62.51;100171.25;7405915;19;2152;-50
2022/08/16 05:50:05;;;;;;;;;;;;;;;24.92;62.54;100153.50;7405034;19;1583;-50
2022/08/16 05:52:36;;;;;;;;;;;;;;;24.89;62.63;100151.19;7403515;19;1459;-49
2022/08/16 05:55:05;;;;;;;;;;;;;;;24.83;63.05;100151.94;7402450;19;1859;-50
2022/08/16 05:57:33;;;;;;;;;;;;;;;24.76;62.83;100170.78;7405103;19;1552;-49
2022/08/16 06:00:01;;;;;;;;;;;;;;;24.84;63.11;100177.94;7403321;19;1764;-48
2022/08/16 06:02:32;;;;;;;;;;;;;;;24.58;63.94;100173.88;7400781;19;1767;-50
2022/08/16 06:05:01;;;;;;;;;;;;;;;23.81;64.42;100164.16;7403620;19;1754;-52
2022/08/16 06:07:29;;;;;;;;;;;;;;;23.51;64.53;100165.88;7405038;19;1599;-50
2022/08/16 06:10:00;;;;;;;;;;;;;;;23.49;64.84;100161.66;7403775;19;1609;-50
2022/08/16 06:12:29;;;;;;;;;;;;;;;23.43;65.66;100157.84;7404835;19;1707;-51
2022/08/16 06:15:00;;;;;;;;;;;;;;;23.39;66.35;100157.34;7400231;19;1854;-50
2022/08/16 06:17:28;;;;;;;;;;;;;;;23.39;66.44;100157.34;7404728;19;1443;-50
2022/08/16 06:19:57;;;;;;;;;;;;;;;23.46;66.48;100172.81;7403159;19;1886;-50
2022/08/16 06:22:25;;;;;;;;;;;;;;;23.53;66.37;100176.47;7404346;19;1902;-50
2022/08/16 06:24:53;;;;;;;;;;;;;;;23.63;66.47;100175.25;7397314;19;1594;-50
2022/08/16 06:27:24;;;;;;;;;;;;;;;23.66;66.81;100171.34;7399305;19;1543;-51
2022/08/16 06:29:53;;;;;;;;;;;;;;;23.61;67.32;100147.56;7400342;19;1902;-49
2022/08/16 06:32:21;;;;;;;;;;;;;;;23.54;67.28;100168.22;7402346;19;1748;-50
2022/08/16 06:34:49;;;;;;;;;;;;;;;23.55;67.29;100174.44;7399037;19;1857;-50
2022/08/16 06:37:18;;;;;;;;;;;;;;;23.52;67.26;100172.94;7400904;19;2042;-50
2022/08/16 06:39:46;;;;;;;;;;;;;;;23.61;68.99;100165.63;7402491;19;1633;-50
2022/08/16 06:42:14;;;;;;;;;;;;;;;23.54;68.33;100165.50;7405183;19;1843;-50
2022/08/16 06:44:45;;;;;;;;;;;;;;;23.53;67.82;100173.78;7404162;19;1647;-50
2022/08/16 06:47:14;;;;;;;;;;;;;;;23.96;66.86;100166.06;7403157;19;1475;-50
2022/08/16 06:49:42;;;;;;;;;;;;;;;24.30;66.51;100162.00;7403211;19;1403;-51
2022/08/16 06:52:10;;;;;;;;;;;;;;;24.47;66.86;100151.84;7402460;19;1628;-51
2022/08/16 06:54:38;;;;;;;;;;;;;;;24.57;66.10;100144.31;7401431;19;1883;-51
2022/08/16 06:57:09;;;;;;;;;;;;;;;24.55;68.00;100160.75;7402460;19;1417;-51
2022/08/16 06:59:37;;;;;;;;;;;;;;;23.80;68.10;100151.66;7400931;19;1546;-51
2022/08/16 07:02:08;;;;;;;;;;;;;;;23.47;68.62;100145.66;7401447;19;1743;-51
2022/08/16 07:04:37;;;;;;;;;;;;;;;23.54;68.40;100148.50;7402445;19;1617;-50
2022/08/16 07:07:07;;;;;;;;;;;;;;;23.71;68.73;100155.41;7402023;19;1646;-51
2022/08/16 07:09:35;;;;;;;;;;;;;;;24.12;67.24;100163.19;7398238;19;1557;-52
2022/08/16 07:12:03;;;;;;;;;;;;;;;24.38;66.13;100140.28;7398244;19;1739;-51
2022/08/16 07:14:32;;;;;;;;;;;;;;;24.54;65.87;100145.53;7401125;19;1868;-51
2022/08/16 07:17:00;;;;;;;;;;;;;;;24.60;65.20;100149.34;7402240;19;1654;-51
2022/08/16 07:19:33;;;;;;;;;;;;;;;24.63;65.05;100151.69;7403261;19;1712;-51
2022/08/16 07:22:02;;;;;;;;;;;;;;;24.67;64.95;100133.22;7402893;19;1836;-51
2022/08/16 07:24:31;;;;;;;;;;;;;;;24.68;64.60;100140.31;7401458;19;1606;-51
2022/08/16 07:26:59;;;;;;;;;;;;;;;24.67;64.92;100135.91;7402158;19;1559;-52
2022/08/16 07:29:27;;;;;;;;;;;;;;;24.72;64.84;100153.25;7402300;19;1814;-51
2022/08/16 07:31:56;;;;;;;;;;;;;;;24.71;65.37;100151.59;7402249;19;1898;-52
2022/08/16 07:34:24;;;;;;;;;;;;;;;24.70;64.98;100165.28;7401926;19;1850;-52
2022/08/16 07:36:55;;;;;;;;;;;;;;;24.69;64.93;100144.69;7400625;19;1851;-52
2022/08/16 07:39:23;;;;;;;;;;;;;;;24.70;64.73;100135.56;7399427;19;2024;-52
2022/08/16 07:41:51;;;;;;;;;;;;;;;24.72;64.88;100149.72;7399674;19;2074;-52
2022/08/16 07:44:20;;;;;;;;;;;;;;;24.72;64.48;100144.31;7398106;19;1560;-52
2022/08/16 07:46:48;;;;;;;;;;;;;;;24.75;64.86;100135.81;7401497;19;1533;-52
2022/08/16 07:49:16;;;;;;;;;;;;;;;24.78;64.49;100147.09;7400880;19;1600;-53
2022/08/16 07:51:45;;;;;;;;;;;;;;;24.81;64.69;100135.09;7402117;19;1382;-52
2022/08/16 07:54:15;;;;;;;;;;;;;;;24.79;64.33;100131.72;7400056;19;1859;-52
2022/08/16 07:56:44;;;;;;;;;;;;;;;24.84;64.52;100137.38;7401410;19;1430;-51
2022/08/16 07:59:12;;;;;;;;;;;;;;;24.82;64.55;100115.09;7401009;19;1650;-52
2022/08/16 08:01:40;;;;;;;;;;;;;;;24.86;64.17;100127.22;7399456;19;1438;-52
2022/08/16 08:04:11;;;;;;;;;;;;;;;24.85;64.32;100130.97;7400814;19;1496;-52
2022/08/16 08:06:40;;;;;;;;;;;;;;;24.87;64.42;100123.50;7402537;19;1582;-52
2022/08/16 08:09:09;;;;;;;;;;;;;;;24.86;64.38;100121.81;7400557;19;1347;-52
2022/08/16 08:11:40;;;;;;;;;;;;;;;24.87;64.25;100112.69;7401651;19;1493;-52
2022/08/16 08:14:08;;;;;;;;;;;;;;;24.90;64.13;100117.69;7398490;19;1849;-52
2022/08/16 08:16:37;;;;;;;;;;;;;;;24.89;64.01;100115.16;7400102;19;1311;-52
2022/08/16 08:19:07;;;;;;;;;;;;;;;24.86;64.00;100127.22;7400153;19;1808;-52
2022/08/16 08:21:35;;;;;;;;;;;;;;;24.89;64.18;100132.25;7401178;19;1919;-53
2022/08/16 08:24:04;;;;;;;;;;;;;;;24.89;64.15;100124.16;7399038;19;1649;-51
2022/08/16 08:26:32;;;;;;;;;;;;;;;24.86;64.27;100134.50;7400535;19;1622;-52
2022/08/16 08:29:03;;;;;;;;;;;;;;;24.92;64.14;100142.69;7398099;19;1633;-52
2022/08/16 08:31:35;;;;;;;;;;;;;;;24.89;64.04;100136.81;7400200;19;1641;-52
2022/08/16 08:34:03;;;;;;;;;;;;;;;24.89;64.02;100132.25;7398878;19;2033;-52
2022/08/16 08:36:34;;;;;;;;;;;;;;;24.91;64.06;100132.91;7399953;19;1628;-52
2022/08/16 08:39:02;;;;;;;;;;;;;;;24.93;63.88;100138.09;7400211;19;1565;-53
2022/08/16 08:41:31;;;;;;;;;;;;;;;24.96;63.95;100135.88;7398134;19;1601;-52
2022/08/16 08:43:59;;;;;;;;;;;;;;;24.95;63.96;100136.91;7398168;19;1778;-52
2022/08/16 08:46:31;;;;;;;;;;;;;;;24.92;63.85;100126.44;7400660;19;1741;-51
2022/08/16 08:49:00;;;;;;;;;;;;;;;24.91;65.00;100140.16;7398488;19;1525;-53
2022/08/16 08:51:28;;;;;;;;;;;;;;;24.42;65.72;100137.03;7399334;19;1317;-51
2022/08/16 08:53:56;;;;;;;;;;;;;;;23.68;65.55;100155.78;7394935;19;1579;-51
2022/08/16 08:56:25;;;;;;;;;;;;;;;23.30;65.40;100141.38;7392950;19;1873;-51
2022/08/16 08:58:53;;;;;;;;;;;;;;;23.26;64.94;100138.22;7394410;19;2028;-44
2022/08/16 09:01:23;;;;;;;;;;;;;;;23.25;64.44;100141.94;7400926;19;2167;-46
2022/08/16 09:03:54;;;;;;;;;;;;;;;23.10;64.53;100135.63;7404165;19;1935;-45
2022/08/16 09:06:22;;;;;;;;;;;;;;;23.13;64.13;100143.38;7405207;19;1520;-47
2022/08/16 09:08:51;;;;;;;;;;;;;;;23.09;63.88;100133.94;7407151;19;1910;-46
2022/08/16 09:11:20;;;;;;;;;;;;;;;22.97;64.21;100128.91;7406184;19;1697;-38
2022/08/16 09:13:49;;;;;;;;;;;;;;;23.30;66.25;100150.34;7403606;19;1713;-39
2022/08/16 09:16:18;;;;;;;;;;;;;;;23.50;66.76;100134.50;7403783;19;1855;-39
2022/08/16 09:18:46;;;;;;;;;;;;;;;23.57;67.56;100135.44;7405718;19;1624;-39
2022/08/16 09:21:17;;;;;;;;;;;;;;;23.63;68.51;100131.19;7405023;19;1796;-40
2022/08/16 09:23:46;;;;;;;;;;;;;;;23.74;69.20;100133.47;7404765;19;1947;-38
2022/08/16 09:26:16;;;;;;;;;;;;;;;23.80;69.33;100146.28;7406058;19;1533;-39
2022/08/16 09:28:45;;;;;;;;;;;;;;;23.82;69.71;100129.88;7406882;19;1508;-40
2022/08/16 09:31:14;;;;;;;;;;;;;;;23.84;69.60;100140.50;7406114;19;2035;-39
2022/08/16 09:33:43;;;;;;;;;;;;;;;23.60;67.53;100139.66;7407306;19;1927;-39
2022/08/16 09:36:12;;;;;;;;;;;;;;;23.36;66.60;100146.94;7404677;19;1846;-39
2022/08/16 09:38:44;;;;;;;;;;;;;;;23.32;66.18;100132.13;7405184;19;1932;-39
2022/08/16 09:41:12;;;;;;;;;;;;;;;23.25;66.07;100130.31;7405704;19;1791;-39
2022/08/16 09:43:40;;;;;;;;;;;;;;;23.32;66.71;100139.38;7405781;19;1652;-40
2022/08/16 09:46:09;;;;;;;;;;;;;;;23.41;67.15;100127.50;7405877;19;1935;-39
2022/08/16 09:48:41;;;;;;;;;;;;;;;23.42;67.67;100107.59;7406080;19;1708;-39
2022/08/16 09:51:10;;;;;;;;;;;;;;;23.51;67.91;100127.25;7405129;19;1793;-39
2022/08/16 09:53:39;;;;;;;;;;;;;;;23.49;68.38;100118.50;7405159;19;1432;-39
2022/08/16 09:56:17;;;;;;;;;;;;;;;23.50;68.88;100121.03;7404539;19;1851;-39
2022/08/16 09:58:46;;;;;;;;;;;;;;;23.61;69.04;100115.16;7406798;19;1707;-39
2022/08/16 10:01:15;;;;;;;;;;;;;;;23.60;69.50;100120.78;7405499;19;1542;-39
2022/08/16 10:03:43;;;;;;;;;;;;;;;23.63;70.10;100112.28;7405777;19;1977;-39
2022/08/16 10:06:11;;;;;;;;;;;;;;;23.72;70.07;100113.91;7403030;19;1698;-40
2022/08/16 10:08:39;;;;;;;;;;;;;;;23.67;70.23;100110.91;7405136;19;1814;-39
2022/08/16 10:13:51;;;;;;;;;;;;;;;23.72;70.25;100113.91;7404693;19;1505;-39
2022/08/16 10:16:19;;;;;;;;;;;;;;;23.56;68.66;100119.47;7403491;19;1831;-37
2022/08/16 10:18:47;;;;;;;;;;;;;;;23.39;68.39;100113.34;7402499;19;1666;-37
2022/08/16 10:21:16;;;;;;;;;;;;;;;23.38;69.23;100111.69;7400725;19;1471;-37
2022/08/16 10:23:45;;;;;;;;;;;;;;;23.47;69.74;100113.28;7400017;19;1546;-36
2022/08/16 10:26:14;;;;;;;;;;;;;;;23.52;69.92;100118.16;7403305;19;1703;-36
2022/08/16 10:28:42;;;;;;;;;;;;;;;23.59;69.82;100119.09;7401618;19;1569;-37
2022/08/16 10:31:13;;;;;;;;;;;;;;;23.60;69.57;100115.38;7402821;19;1359;-37
2022/08/16 10:33:42;;;;;;;;;;;;;;;23.65;69.69;100112.97;7402325;19;1588;-36
2022/08/16 10:36:12;;;;;;;;;;;;;;;23.71;69.68;100096.03;7401200;19;1869;-37
2022/08/16 10:38:40;;;;;;;;;;;;;;;23.72;69.63;100105.81;7402822;19;1977;-38
2022/08/16 10:41:09;;;;;;;;;;;;;;;23.55;69.43;100105.09;7407265;19;1549;-37
2022/08/16 10:43:38;;;;;;;;;;;;;;;22.96;68.94;100102.13;7404536;19;1571;-37
2022/08/16 10:46:07;;;;;;;;;;;;;;;22.56;67.97;100099.50;7400610;19;1549;-37
2022/08/16 10:48:38;;;;;;;;;;;;;;;22.44;66.95;100100.88;7403287;19;1598;-37
2022/08/16 10:51:07;;;;;;;;;;;;;;;22.31;65.89;100101.44;7402723;19;1669;-37
2022/08/16 10:53:35;;;;;;;;;;;;;;;22.18;65.55;100114.56;7403133;19;1629;-37
2022/08/16 10:56:03;;;;;;;;;;;;;;;22.13;65.05;100106.19;7401935;19;1857;-37
2022/08/16 10:58:32;;;;;;;;;;;;;;;22.15;64.57;100110.38;7402574;19;1603;-37
2022/08/16 11:01:01;;;;;;;;;;;;;;;21.94;64.00;100096.59;7403192;19;1507;-37
2022/08/16 11:03:29;;;;;;;;;;;;;;;21.94;63.65;100102.00;7403147;19;1622;-36
2022/08/16 11:06:00;;;;;;;;;;;;;;;21.87;63.32;100106.41;7400651;19;1801;-37
2022/08/16 11:08:28;;;;;;;;;;;;;;;21.77;63.11;100096.63;7400001;19;1463;-37
2022/08/16 11:10:57;;;;;;;;;;;;;;;21.74;62.49;100113.13;7402337;19;1613;-36
2022/08/16 11:13:26;;;;;;;;;;;;;;;21.73;62.43;100095.31;7402028;19;1478;-37
2022/08/16 11:15:56;;;;;;;;;;;;;;;22.36;61.05;100098.19;7400892;19;1869;-37
2022/08/16 11:18:24;;;;;;;;;;;;;;;23.25;60.33;100101.47;7402489;19;1946;-37
2022/08/16 11:20:52;;;;;;;;;;;;;;;23.71;59.30;100098.72;7400587;19;1459;-37
2022/08/16 11:23:23;;;;;;;;;;;;;;;23.93;59.29;100088.09;7399736;19;1601;-37
2022/08/16 11:25:52;;;;;;;;;;;;;;;24.09;59.22;100085.22;7401150;19;1530;-38
2022/08/16 11:28:20;;;;;;;;;;;;;;;24.14;59.07;100085.50;7402774;19;1579;-37
2022/08/16 11:30:48;;;;;;;;;;;;;;;24.20;59.28;100082.06;7400514;19;1528;-37
2022/08/16 11:33:17;;;;;;;;;;;;;;;24.30;59.19;100078.25;7397372;19;1479;-37
2022/08/16 11:35:45;;;;;;;;;;;;;;;24.28;59.70;100066.78;7399028;19;1855;-37
2022/08/16 11:38:16;;;;;;;;;;;;;;;24.34;59.90;100074.97;7401319;19;1456;-37
2022/08/16 11:40:49;;;;;;;;;;;;;;;24.38;59.97;100064.63;7400211;19;1541;-38
2022/08/16 11:43:18;;;;;;;;;;;;;;;24.41;59.87;100058.81;7401042;19;1956;-37
2022/08/16 11:45:47;;;;;;;;;;;;;;;24.47;60.27;100060.81;7401640;19;1850;-38
2022/08/16 11:48:15;;;;;;;;;;;;;;;24.45;60.34;100065.53;7400490;19;1657;-37
2022/08/16 11:50:44;;;;;;;;;;;;;;;24.48;60.36;100069.75;7399264;19;1659;-37
2022/08/16 11:53:13;;;;;;;;;;;;;;;24.43;63.12;100062.19;7400642;19;1466;-37
2022/08/16 11:55:42;;;;;;;;;;;;;;;24.42;63.28;100055.13;7398857;19;1847;-37
2022/08/16 11:58:14;;;;;;;;;;;;;;;24.47;63.36;100058.09;7401211;19;1859;-37
2022/08/16 12:00:43;;;;;;;;;;;;;;;24.50;63.88;100052.34;7400213;19;1470;-37
2022/08/16 12:03:11;;;;;;;;;;;;;;;24.56;62.68;100048.88;7400891;19;1615;-37
2022/08/16 12:05:41;;;;;;;;;;;;;;;24.59;63.19;100040.41;7400199;19;1494;-37
2022/08/16 12:08:09;;;;;;;;;;;;;;;24.56;63.10;100050.75;7400687;19;1469;-37
2022/08/16 12:10:38;;;;;;;;;;;;;;;24.53;63.60;100041.16;7404093;19;1544;-37
2022/08/16 12:13:07;;;;;;;;;;;;;;;24.57;63.53;100038.88;7400941;19;1480;-37
2022/08/16 12:15:38;;;;;;;;;;;;;;;24.58;63.71;100044.09;7397608;19;1865;-37
2022/08/16 12:18:06;;;;;;;;;;;;;;;24.64;63.85;100038.97;7400589;19;1482;-37
2022/08/16 12:20:36;;;;;;;;;;;;;;;24.59;63.53;100035.00;7401352;19;1460;-37
2022/08/16 12:23:05;;;;;;;;;;;;;;;24.60;63.61;100033.94;7398171;19;1721;-37
2022/08/16 12:25:35;;;;;;;;;;;;;;;24.57;63.77;100022.66;7399447;19;1533;-37
2022/08/16 12:28:03;;;;;;;;;;;;;;;24.64;63.77;100020.88;7400763;19;1659;-37
2022/08/16 12:30:33;;;;;;;;;;;;;;;24.74;63.50;100039.50;7399202;19;1432;-37
2022/08/16 12:33:05;;;;;;;;;;;;;;;24.74;63.73;100021.41;7395493;19;1550;-38
2022/08/16 12:35:34;;;;;;;;;;;;;;;24.78;63.82;100029.97;7400964;19;1872;-37
2022/08/16 12:38:03;;;;;;;;;;;;;;;24.80;63.40;100019.81;7407418;19;1599;-37
2022/08/16 12:40:33;;;;;;;;;;;;;;;24.77;63.84;100012.06;7404822;19;1782;-37
2022/08/16 12:43:03;;;;;;;;;;;;;;;24.76;63.85;100008.53;7407507;19;1925;-37
2022/08/16 12:45:32;;;;;;;;;;;;;;;24.75;64.17;100015.00;7406077;19;1476;-37
2022/08/16 12:50:44;;;;;;;;;;;;;;;24.91;63.43;100018.44;7402144;19;1570;-37
2022/08/16 12:53:12;;;;;;;;;;;;;;;24.96;63.69;100019.56;7405499;19;1823;-37
2022/08/16 12:55:41;;;;;;;;;;;;;;;24.99;63.81;100024.59;7402536;19;1873;-39
2022/08/16 12:58:09;;;;;;;;;;;;;;;24.97;63.47;100021.25;7404466;19;1778;-38
2022/08/16 13:00:37;;;;;;;;;;;;;;;25.00;63.58;100014.59;7404672;19;1954;-38
2022/08/16 13:03:08;;;;;;;;;;;;;;;25.02;63.58;100013.38;7405450;19;1828;-38
2022/08/16 13:05:39;;;;;;;;;;;;;;;25.02;63.16;100015.25;7404282;19;1535;-39
2022/08/16 13:08:12;;;;;;;;;;;;;;;25.00;63.51;100007.31;7400605;19;1618;-37
2022/08/16 13:10:40;;;;;;;;;;;;;;;24.98;63.23;100006.69;7406054;19;1662;-38
2022/08/16 13:13:09;;;;;;;;;;;;;;;24.95;63.12;99998.97;7408569;19;1019;-37
2022/08/16 13:15:38;;;;;;;;;;;;;;;24.95;62.98;100012.50;7404606;19;2405;-38
2022/08/16 13:18:07;;;;;;;;;;;;;;;24.96;62.75;100006.03;7406237;19;1632;-37
2022/08/16 13:20:35;;;;;;;;;;;;;;;24.98;63.08;100006.69;7407582;19;1996;-38
2022/08/16 13:23:05;;;;;;;;;;;;;;;24.94;62.79;99997.28;7405975;19;2027;-38